createdAt,value
2023-04-23T00:03:23.583Z,29.38
2023-04-23T00:08:26.784Z,23.52
2023-04-23T00:13:28.656Z,24.17
2023-04-23T00:18:30.262Z,23.80
2023-04-23T00:23:31.771Z,26.38
2023-04-23T00:28:33.508Z,44.95
2023-04-23T00:33:35.189Z,27.23
2023-04-23T00:38:37.438Z,28.50
2023-04-23T00:43:39.278Z,36.08
2023-04-23T00:48:41.404Z,31.58
2023-04-23T00:53:42.995Z,28.50
2023-04-23T00:58:45.464Z,29.75
2023-04-23T01:03:52.659Z,29.33
2023-04-23T01:08:54.734Z,31.23
2023-04-23T01:13:56.387Z,31.27
2023-04-23T01:18:58.045Z,34.50
2023-04-23T01:23:59.941Z,39.78
2023-04-23T01:29:01.916Z,47.90
2023-04-23T01:34:05.063Z,41.90
2023-04-23T01:39:06.872Z,40.55
2023-04-23T01:44:08.582Z,39.47
2023-04-23T01:49:10.643Z,38.92
2023-04-23T01:54:12.329Z,43.05
2023-04-23T01:59:13.887Z,44.42
2023-04-23T02:04:16.647Z,45.53
2023-04-23T02:09:18.441Z,49.33
2023-04-23T02:14:20.042Z,46.47
2023-04-23T02:19:22.097Z,53.65
2023-04-23T02:24:23.753Z,63.38
2023-04-23T02:29:25.330Z,52.67
2023-04-23T02:34:27.054Z,59.55
2023-04-23T02:39:28.668Z,55.53
2023-04-23T02:44:30.308Z,56.55
2023-04-23T02:49:31.823Z,72.63
2023-04-23T02:54:33.541Z,65.00
2023-04-23T02:59:35.128Z,81.28
2023-04-23T03:04:37.006Z,89.63
2023-04-23T03:09:39.104Z,77.78
2023-04-23T03:14:41.523Z,80.72
2023-04-23T03:19:43.911Z,94.60
2023-04-23T03:24:46.257Z,86.18
2023-04-23T03:29:47.964Z,91.50
2023-04-23T03:34:49.604Z,84.10
2023-04-23T03:39:51.483Z,76.07
2023-04-23T03:44:53.297Z,89.90
2023-04-23T03:49:56.377Z,98.88
2023-04-23T03:54:58.612Z,93.50
2023-04-23T04:00:06.302Z,105.35
2023-04-23T04:05:14.838Z,119.35
2023-04-23T04:10:16.580Z,126.38
2023-04-23T04:15:18.336Z,118.68
2023-04-23T04:20:20.022Z,108.80
2023-04-23T04:25:21.702Z,96.90
2023-04-23T04:30:24.811Z,91.97
2023-04-23T04:35:26.406Z,85.05
2023-04-23T04:40:27.911Z,92.72
2023-04-23T04:45:29.628Z,95.93
2023-04-23T04:50:31.362Z,83.82
2023-04-23T04:55:33.209Z,80.20
2023-04-23T05:00:34.976Z,84.47
2023-04-23T05:05:36.544Z,84.63
2023-04-23T05:10:38.546Z,78.57
2023-04-23T05:15:40.146Z,73.38
2023-04-23T05:20:41.793Z,69.10
2023-04-23T05:25:43.472Z,63.47
2023-04-23T05:30:44.972Z,57.58
2023-04-23T05:35:46.632Z,49.53
2023-04-23T05:40:48.550Z,45.63
2023-04-23T05:45:50.701Z,46.53
2023-04-23T05:50:52.286Z,41.13
2023-04-23T05:55:53.989Z,36.60
2023-04-23T06:00:55.686Z,29.10
2023-04-23T06:05:57.402Z,28.55
2023-04-23T06:10:59.179Z,24.98
2023-04-23T06:16:00.725Z,21.08
2023-04-23T06:21:02.314Z,18.17
2023-04-23T06:26:04.087Z,14.43
2023-04-23T06:31:06.168Z,13.93
2023-04-23T06:36:08.443Z,12.70
2023-04-23T06:41:11.552Z,10.80
2023-04-23T06:46:13.118Z,9.75
2023-04-23T06:51:14.888Z,11.32
2023-04-23T06:56:16.559Z,8.80
2023-04-23T07:01:18.548Z,11.57
2023-04-23T07:06:20.646Z,8.40
2023-04-23T07:11:22.246Z,7.28
2023-04-23T07:16:24.055Z,6.55
2023-04-23T07:21:25.616Z,13.30
2023-04-23T07:26:27.156Z,5.68
2023-04-23T07:31:28.714Z,7.47
2023-04-23T07:36:30.369Z,5.43
2023-04-23T07:41:32.979Z,4.50
2023-04-23T07:46:34.660Z,4.53
2023-04-23T07:51:36.284Z,3.72
2023-04-23T07:56:37.896Z,5.25
2023-04-23T08:01:39.586Z,3.50
2023-04-23T08:06:41.089Z,4.43
2023-04-23T08:11:42.585Z,3.45
2023-04-23T08:16:44.725Z,4.93
2023-04-23T08:21:46.941Z,3.80
2023-04-23T08:26:48.503Z,3.95
2023-04-23T08:31:50.209Z,5.03
2023-04-23T08:36:51.758Z,4.22
2023-04-23T08:42:02.262Z,4.53
2023-04-23T08:47:05.346Z,3.97
2023-04-23T08:52:15.954Z,3.60
2023-04-23T08:57:18.595Z,3.22
2023-04-23T09:02:20.298Z,2.53
2023-04-23T09:07:22.136Z,9.68
2023-04-23T09:12:23.707Z,3.75
2023-04-23T09:17:28.963Z,8.77
2023-04-23T09:22:48.084Z,5.43
2023-04-23T09:27:51.689Z,3.42
2023-04-23T09:32:53.932Z,4.80
2023-04-23T09:37:55.594Z,2.97
2023-04-23T09:42:57.180Z,5.53
2023-04-23T09:47:59.312Z,3.97
2023-04-23T09:53:01.242Z,3.35
2023-04-23T09:58:04.589Z,4.47
2023-04-23T10:03:07.326Z,4.85
2023-04-23T10:08:11.412Z,3.20
2023-04-23T10:13:14.388Z,3.73
2023-04-23T10:18:16.309Z,4.22
2023-04-23T10:23:21.954Z,3.33
2023-04-23T10:28:26.699Z,2.42
2023-04-23T10:33:33.609Z,4.57
2023-04-23T10:38:54.638Z,6.38
2023-04-23T10:43:59.380Z,1.98
2023-04-23T10:49:07.906Z,2.63
2023-04-23T10:54:10.010Z,1.77
2023-04-23T10:59:21.484Z,2.35
2023-04-23T11:04:25.012Z,5.75
2023-04-23T11:09:45.580Z,2.58
2023-04-23T11:14:48.992Z,3.00
2023-04-23T11:20:19.184Z,2.60
2023-04-23T11:25:21.653Z,1.77
2023-04-23T11:30:25.809Z,1.80
2023-04-23T11:35:27.879Z,4.68
2023-04-23T11:40:29.503Z,2.05
2023-04-23T11:45:31.039Z,1.58
2023-04-23T11:50:33.537Z,2.28
2023-04-23T11:55:35.500Z,3.08
2023-04-23T12:00:37.026Z,3.25
2023-04-23T12:05:44.804Z,2.80
2023-04-23T12:10:47.868Z,2.28
2023-04-23T12:15:55.090Z,2.72
2023-04-23T12:21:04.712Z,2.30
2023-04-23T12:26:14.034Z,2.67
2023-04-23T12:31:23.303Z,3.20
2023-04-23T12:36:27.845Z,2.13
2023-04-23T12:41:31.121Z,2.13
2023-04-23T12:46:33.863Z,2.97
2023-04-23T12:51:35.589Z,4.43
2023-04-23T12:56:37.133Z,1.13
2023-04-23T13:01:38.798Z,1.73
2023-04-23T13:06:41.635Z,2.58
2023-04-23T13:11:43.223Z,2.53
2023-04-23T13:16:45.010Z,1.63
2023-04-23T13:21:46.610Z,2.30
2023-04-23T13:26:48.173Z,2.13
2023-04-23T13:31:50.074Z,3.05
2023-04-23T13:36:51.703Z,2.50
2023-04-23T13:42:02.737Z,3.10
2023-04-23T13:47:10.877Z,3.10
2023-04-23T13:52:12.424Z,4.07
2023-04-23T13:57:14.112Z,4.45
2023-04-23T14:02:15.824Z,3.65
2023-04-23T14:07:17.611Z,1.80
2023-04-23T14:12:19.860Z,2.63
2023-04-23T14:17:21.394Z,3.75
2023-04-23T14:22:23.223Z,3.97
2023-04-23T14:27:24.762Z,2.75
2023-04-23T14:32:26.367Z,3.45
2023-04-23T14:37:27.889Z,3.63
2023-04-23T14:42:29.450Z,3.08
2023-04-23T14:47:31.005Z,4.00
2023-04-23T14:52:32.638Z,3.55
2023-04-23T14:57:34.169Z,13.10
2023-04-23T15:02:35.812Z,4.72
2023-04-23T15:07:38.338Z,4.93
2023-04-23T15:12:39.895Z,6.63
2023-04-23T15:17:41.552Z,4.20
2023-04-23T15:22:46.258Z,3.45
2023-04-23T15:27:47.925Z,4.95
2023-04-23T15:32:49.525Z,4.38
2023-04-23T15:37:51.265Z,3.63
2023-04-23T15:42:54.258Z,4.47
2023-04-23T15:47:55.841Z,3.83
2023-04-23T15:52:57.534Z,4.07
2023-04-23T15:57:59.017Z,4.93
2023-04-23T16:03:01.355Z,4.32
2023-04-23T16:08:03.563Z,4.22
2023-04-23T16:13:05.249Z,4.60
2023-04-23T16:18:06.834Z,9.55
2023-04-23T16:23:08.428Z,5.10
2023-04-23T16:28:10.024Z,6.07
2023-04-23T16:33:11.542Z,4.38
2023-04-23T16:38:13.115Z,5.88
2023-04-23T16:43:14.640Z,3.45
2023-04-23T16:48:16.141Z,3.92
2023-04-23T16:53:17.638Z,2.80
2023-04-23T16:58:19.158Z,3.50
2023-04-23T17:03:20.756Z,3.30
2023-04-23T17:08:22.320Z,3.03
2023-04-23T17:13:23.788Z,3.92
2023-04-23T17:18:25.290Z,2.40
2023-04-23T17:23:26.897Z,3.47
2023-04-23T17:28:28.422Z,3.33
2023-04-23T17:33:29.918Z,3.42
2023-04-23T17:38:31.472Z,2.97
2023-04-23T17:43:33.218Z,3.03
2023-04-23T17:48:34.744Z,3.22
2023-04-23T17:53:36.420Z,2.15
2023-04-23T17:58:38.496Z,5.57
2023-04-23T18:03:40.323Z,2.55
2023-04-23T18:08:43.513Z,2.70
2023-04-23T18:13:45.061Z,6.20
2023-04-23T18:18:46.592Z,1.80
2023-04-23T18:23:48.219Z,3.20
2023-04-23T18:28:49.776Z,4.43
2023-04-23T18:33:59.439Z,2.67
2023-04-23T18:39:01.021Z,2.03
2023-04-23T18:44:02.570Z,2.75
2023-04-23T18:49:22.842Z,2.08
2023-04-23T18:54:24.376Z,4.10
2023-04-23T18:59:25.849Z,2.08
2023-04-23T19:04:27.423Z,1.17
2023-04-23T19:09:29.177Z,1.92
2023-04-23T19:14:30.680Z,3.20
2023-04-23T19:19:32.222Z,1.92
2023-04-23T19:24:33.766Z,2.90
2023-04-23T19:29:35.273Z,2.38
2023-04-23T19:34:36.834Z,3.33
2023-04-23T19:39:38.349Z,4.25
2023-04-23T19:44:39.842Z,2.70
2023-04-23T19:49:41.868Z,3.28
2023-04-23T19:54:43.731Z,1.42
2023-04-23T19:59:48.598Z,1.05
2023-04-23T20:04:50.094Z,2.88
2023-04-23T20:09:51.629Z,1.95
2023-04-23T20:14:53.106Z,0.95
2023-04-23T20:19:54.626Z,0.55
2023-04-23T20:24:56.904Z,0.43
2023-04-23T20:29:58.452Z,0.55
2023-04-23T20:34:59.914Z,0.80
2023-04-23T20:40:01.638Z,1.20
2023-04-23T20:45:03.397Z,1.55
2023-04-23T20:50:05.390Z,0.75
2023-04-23T20:55:07.429Z,1.90
2023-04-23T21:00:09.353Z,1.20
2023-04-23T21:05:11.987Z,1.10
2023-04-23T21:10:13.486Z,0.65
2023-04-23T21:15:15.752Z,0.60
2023-04-23T21:20:17.285Z,0.82
2023-04-23T21:25:18.933Z,0.93
2023-04-23T21:30:49.838Z,1.10
2023-04-23T21:35:53.126Z,0.50
2023-04-23T21:40:54.663Z,0.38
2023-04-23T21:45:56.228Z,0.93
2023-04-23T21:50:57.712Z,0.68
2023-04-23T21:55:59.245Z,1.05
2023-04-23T22:01:01.034Z,0.40
2023-04-23T22:06:03.362Z,0.82
2023-04-23T22:11:06.309Z,0.85
2023-04-23T22:16:20.357Z,0.30
2023-04-23T22:21:28.701Z,4.03
2023-04-23T22:26:30.281Z,1.20
2023-04-23T22:31:31.876Z,2.55
2023-04-23T22:36:33.606Z,1.20
2023-04-23T22:41:35.105Z,0.60
2023-04-23T22:46:36.760Z,1.45
2023-04-23T22:51:38.321Z,1.50
2023-04-23T22:56:40.625Z,1.73
2023-04-23T23:01:43.056Z,1.92
2023-04-23T23:06:44.677Z,3.90
2023-04-23T23:11:46.247Z,2.85
2023-04-23T23:16:47.783Z,1.77
2023-04-23T23:21:49.369Z,1.27
2023-04-23T23:26:51.049Z,3.15
2023-04-23T23:31:52.613Z,0.90
2023-04-23T23:36:55.329Z,2.83
2023-04-23T23:41:58.380Z,1.92
2023-04-23T23:47:19.153Z,1.33
2023-04-23T23:52:20.658Z,1.08
2023-04-23T23:57:22.198Z,1.85
